| time (UTC) | temp F | wind direction | speed MPH | gust MPH | rain 1hr in | rain 24hr in | rain mn in | humidity % | barometer mb |
| 20260906230053 | 78 | 208 | 8.0 | 15.0 | 0.00 | 0.00 | 0.00 | 27 | 1015.9 |
| 20260906225029 | 79 | 231 | 9.0 | 17.0 | 0.00 | 0.00 | 0.00 | 26 | 1016.2 |
| 20260906224029 | 80 | 222 | 9.0 | 13.0 | 0.00 | 0.00 | 0.00 | 26 | 1016.3 |
| 20260906222031 | 81 | 186 | 8.0 | 13.0 | 0.00 | 0.00 | 0.00 | 26 | 1018.0 |
| 20260906221026 | 83 | 213 | 7.0 | 12.0 | 0.00 | 0.00 | 0.00 | 26 | 1018.4 |
| 20260906220028 | 83 | 238 | 8.0 | 11.0 | 0.00 | 0.00 | 0.00 | 26 | 1018.4 |
| 20260906215028 | 84 | 219 | 8.0 | 14.0 | 0.00 | 0.00 | 0.00 | 25 | 1018.9 |
| 20260906214024 | 85 | 222 | 7.0 | 10.0 | 0.00 | 0.00 | 0.00 | 24 | 1019.3 |
| 20260906213024 | 86 | 203 | 8.0 | 8.0 | 0.00 | 0.00 | 0.00 | 22 | 1019.2 |
| 20260906212025 | 84 | 203 | 8.0 | 13.0 | 0.00 | 0.00 | 0.00 | 25 | 1019.5 |
| 20260906211027 | 81 | 229 | 7.0 | 14.0 | 0.00 | 0.00 | 0.00 | 27 | 1018.8 |
| 20260906210054 | 80 | 212 | 7.0 | 11.0 | 0.00 | 0.00 | 0.00 | 27 | 1018.7 |
| 20260906205029 | 80 | 207 | 8.0 | 13.0 | 0.00 | 0.00 | 0.00 | 27 | 1018.7 |
| 20260906204020 | 81 | 194 | 8.0 | 12.0 | 0.00 | 0.00 | 0.00 | 27 | 1019.6 |
| 20260906203022 | 82 | 228 | 7.0 | 8.0 | 0.00 | 0.00 | 0.00 | 27 | 1019.6 |
| 20260906202023 | 82 | 208 | 8.0 | 10.0 | 0.00 | 0.00 | 0.00 | 27 | 1019.7 |
| 20260906201024 | 83 | 194 | 6.0 | 11.0 | 0.00 | 0.00 | 0.00 | 27 | 1020.1 |
| 20260906200029 | 82 | 229 | 5.0 | 10.0 | 0.00 | 0.00 | 0.00 | 27 | 1020.5 |
| 20260906195055 | 82 | 182 | 5.0 | 6.0 | 0.00 | 0.00 | 0.00 | 29 | 1020.8 |
| 20260906194021 | 81 | 221 | 4.0 | 7.0 | 0.00 | 0.00 | 0.00 | 29 | 1020.5 |
| 20260906193042 | 80 | 204 | 3.0 | 7.0 | 0.00 | 0.00 | 0.00 | 30 | 1020.5 |
| 20260906192028 | 80 | 133 | 3.0 | 5.0 | 0.00 | 0.00 | 0.00 | 30 | 1020.8 |
| 20260906191030 | 79 | 230 | 3.0 | 11.0 | 0.00 | 0.00 | 0.00 | 30 | 1020.5 |
| 20260906190021 | 79 | 221 | 3.0 | 3.0 | 0.00 | 0.00 | 0.00 | 29 | 1021.0 |
| 20260906185022 | 80 | 194 | 4.0 | 8.0 | 0.00 | 0.00 | 0.00 | 30 | 1021.6 |
| 20260906184023 | 80 | 205 | 4.0 | 5.0 | 0.00 | 0.00 | 0.00 | 29 | 1022.1 |
| 20260906183052 | 79 | 259 | 4.0 | 14.0 | 0.00 | 0.00 | 0.00 | 30 | 1021.7 |
| 20260906182029 | 79 | 268 | 4.0 | 8.0 | 0.00 | 0.00 | 0.00 | 30 | 1022.7 |
| 20260906181211 | 78 | 231 | 4.0 | 4.0 | 0.00 | 0.00 | 0.00 | 31 | 1022.4 |
| 20260906180023 | 78 | 216 | 4.0 | 9.0 | 0.00 | 0.00 | 0.00 | 31 | 1022.8 |
| 20260906175024 | 77 | 183 | 3.0 | 5.0 | 0.00 | 0.00 | 0.00 | 32 | 1023.4 |
| 20260906174026 | 76 | 113 | 4.0 | 11.0 | 0.00 | 0.00 | 0.00 | 33 | 1023.4 |
| 20260906173027 | 75 | 23 | 3.0 | 7.0 | 0.00 | 0.00 | 0.00 | 32 | 1022.9 |
| 20260906171104 | 73 | 55 | 3.0 | 6.0 | 0.00 | 0.00 | 0.00 | 33 | 1023.2 |
| 20260906170120 | 72 | 55 | 3.0 | 6.0 | 0.00 | 0.00 | 0.00 | 34 | 1023.4 |
| 20260906165031 | 71 | 139 | 3.0 | 7.0 | 0.00 | 0.00 | 0.00 | 35 | 1023.4 |
| 20260906164021 | 70 | 61 | 3.0 | 6.0 | 0.00 | 0.00 | 0.00 | 37 | 1023.2 |
| 20260906163048 | 68 | 51 | 3.0 | 6.0 | 0.00 | 0.00 | 0.00 | 38 | 1022.9 |
| 20260906162101 | 66 | 102 | 2.0 | 5.0 | 0.00 | 0.00 | 0.00 | 41 | 1023.1 |
| 20260906161053 | 65 | 41 | 2.0 | 5.0 | 0.00 | 0.00 | 0.00 | 42 | 1022.6 |
| 20260906155023 | 62 | 14 | 2.0 | 2.0 | 0.00 | 0.00 | 0.00 | 46 | 1022.3 |
| 20260906154024 | 61 | 15 | 2.0 | 5.0 | 0.00 | 0.00 | 0.00 | 48 | 1022.4 |
| 20260906153027 | 59 | 53 | 3.0 | 4.0 | 0.00 | 0.00 | 0.00 | 49 | 1021.9 |
| 20260906152027 | 58 | 0 | 2.0 | 5.0 | 0.00 | 0.00 | 0.00 | 51 | 1021.7 |
| 20260906151029 | 57 | 11 | 2.0 | 2.0 | 0.00 | 0.00 | 0.00 | 53 | 1021.5 |
| 20260906145027 | 54 | 86 | 2.0 | 2.0 | 0.00 | 0.00 | 0.00 | 56 | 1020.5 |
| 20260906144027 | 53 | 31 | 2.0 | 4.0 | 0.00 | 0.00 | 0.00 | 58 | 1019.5 |
| 20260906143028 | 52 | 351 | 1.0 | 1.0 | 0.00 | 0.00 | 0.00 | 60 | 1019.5 |
| 20260906142030 | 52 | 336 | 1.0 | 2.0 | 0.00 | 0.00 | 0.00 | 63 | 1019.6 |
| 20260906141021 | 51 | 127 | 0.0 | 1.0 | 0.00 | 0.00 | 0.00 | 65 | 1019.3 |
| 20260906135023 | 51 | 143 | 0.0 | 0.0 | 0.00 | 0.00 | 0.00 | 64 | 1019.5 |
| 20260906134232 | 50 | 160 | 0.0 | 1.0 | 0.00 | 0.00 | 0.00 | 63 | 1019.0 |
| 20260906133020 | 50 | 148 | 1.0 | 1.0 | 0.00 | 0.00 | 0.00 | 63 | 1019.0 |
| 20260906132047 | 50 | 178 | 1.0 | 2.0 | 0.00 | 0.00 | 0.00 | 63 | 1019.3 |
| 20260906131025 | 50 | 158 | 0.0 | 2.0 | 0.00 | 0.00 | 0.00 | 63 | 1019.3 |
| 20260906130035 | 50 | 0.0 | 0.0 | 0.00 | 0.00 | 0.00 | 63 | 1019.2 | |
| 20260906125117 | 50 | 0.0 | 0.0 | 0.00 | 0.00 | 0.00 | 63 | 1019.6 | |
| 20260906123055 | 51 | 229 | 1.0 | 1.0 | 0.00 | 0.00 | 0.00 | 61 | 1019.3 |
| 20260906122054 | 51 | 158 | 0.0 | 2.0 | 0.00 | 0.00 | 0.00 | 61 | 1020.1 |
| 20260906121029 | 51 | 252 | 1.0 | 1.0 | 0.00 | 0.00 | 0.00 | 60 | 1020.1 |
| 20260906120049 | 51 | 306 | 1.0 | 2.0 | 0.00 | 0.00 | 0.00 | 59 | 1020.0 |
| 20260906115024 | 51 | 335 | 1.0 | 2.0 | 0.00 | 0.00 | 0.00 | 59 | 1020.4 |
| 20260906114025 | 51 | 246 | 1.0 | 2.0 | 0.00 | 0.00 | 0.00 | 60 | 1020.4 |
| 20260906113038 | 52 | 304 | 1.0 | 3.0 | 0.00 | 0.00 | 0.00 | 62 | 1020.8 |
| 20260906111029 | 52 | 208 | 1.0 | 3.0 | 0.00 | 0.00 | 0.00 | 61 | 1021.6 |
| 20260906110120 | 52 | 198 | 2.0 | 2.0 | 0.00 | 0.00 | 0.00 | 61 | 1021.3 |
| 20260906105032 | 53 | 184 | 2.0 | 3.0 | 0.00 | 0.00 | 0.00 | 60 | 1021.7 |
| 20260906104028 | 53 | 334 | 1.0 | 2.0 | 0.00 | 0.00 | 0.00 | 60 | 1021.8 |
| 20260906103028 | 53 | 233 | 0.0 | 0.0 | 0.00 | 0.00 | 0.00 | 60 | 1021.8 |
| 20260906102030 | 54 | 189 | 0.0 | 1.0 | 0.00 | 0.00 | 0.00 | 59 | 1021.9 |
| 20260906101030 | 54 | 145 | 0.0 | 1.0 | 0.00 | 0.00 | 0.00 | 58 | 1021.9 |
| 20260906100021 | 54 | 307 | 0.0 | 2.0 | 0.00 | 0.00 | 0.00 | 58 | 1021.6 |
| 20260906095023 | 54 | 21 | 0.0 | 0.0 | 0.00 | 0.00 | 0.00 | 58 | 1021.3 |
| 20260906094025 | 54 | 279 | 1.0 | 1.0 | 0.00 | 0.00 | 0.00 | 58 | 1021.1 |
| 20260906093027 | 55 | 333 | 1.0 | 3.0 | 0.00 | 0.00 | 0.00 | 57 | 1021.5 |
| 20260906092132 | 55 | 159 | 1.0 | 4.0 | 0.00 | 0.00 | 0.00 | 56 | 1021.4 |
| 20260906091027 | 56 | 67 | 0.0 | 2.0 | 0.00 | 0.00 | 0.00 | 55 | 1021.7 |
| 20260906090029 | 56 | 214 | 0.0 | 1.0 | 0.00 | 0.00 | 0.00 | 55 | 1021.5 |
| 20260906085031 | 56 | 312 | 1.0 | 1.0 | 0.00 | 0.00 | 0.00 | 54 | 1020.8 |
| 20260906084021 | 57 | 293 | 0.0 | 0.0 | 0.00 | 0.00 | 0.00 | 53 | 1020.4 |
| 20260906083023 | 57 | 194 | 1.0 | 2.0 | 0.00 | 0.00 | 0.00 | 53 | 1020.5 |
| 20260906082024 | 57 | 135 | 0.0 | 1.0 | 0.00 | 0.00 | 0.00 | 53 | 1020.7 |
| 20260906081025 | 58 | 259 | 0.0 | 1.0 | 0.00 | 0.00 | 0.00 | 52 | 1020.7 |
| 20260906075027 | 59 | 0.0 | 0.0 | 0.00 | 0.00 | 0.00 | 49 | 1020.7 | |
| 20260906074028 | 59 | 0.0 | 0.0 | 0.00 | 0.00 | 0.00 | 49 | 1020.7 | |
| 20260906073030 | 60 | 178 | 0.0 | 1.0 | 0.00 | 0.00 | 0.00 | 48 | 1020.7 |
| 20260906072020 | 60 | 270 | 0.0 | 2.0 | 0.00 | 0.00 | 0.00 | 47 | 1019.8 |
| 20260906071214 | 61 | 288 | 0.0 | 0.0 | 0.00 | 0.00 | 0.00 | 47 | 1020.1 |
| 20260906070023 | 61 | 337 | 0.0 | 2.0 | 0.00 | 0.00 | 0.00 | 47 | 1020.2 |
| 20260906065024 | 62 | 321 | 1.0 | 1.0 | 0.00 | 0.00 | 0.00 | 45 | 1019.8 |
| 20260906064027 | 62 | 223 | 0.0 | 0.0 | 0.00 | 0.00 | 0.00 | 44 | 1019.6 |
| 20260906063028 | 63 | 345 | 0.0 | 1.0 | 0.00 | 0.00 | 0.00 | 43 | 1020.0 |
| 20260906062029 | 64 | 194 | 1.0 | 2.0 | 0.00 | 0.00 | 0.00 | 41 | 1019.9 |
| 20260906061030 | 64 | 158 | 1.0 | 2.0 | 0.00 | 0.00 | 0.00 | 41 | 1019.9 |
| 20260906060043 | 65 | 201 | 1.0 | 2.0 | 0.00 | 0.00 | 0.00 | 40 | 1019.9 |
| 20260906055027 | 66 | 135 | 0.0 | 1.0 | 0.00 | 0.00 | 0.00 | 39 | 1019.4 |
| 20260906054054 | 66 | 299 | 0.0 | 1.0 | 0.00 | 0.00 | 0.00 | 38 | 1019.6 |
| 20260906052021 | 68 | 342 | 1.0 | 2.0 | 0.00 | 0.00 | 0.00 | 35 | 1019.5 |
| 20260906051022 | 69 | 60 | 1.0 | 2.0 | 0.00 | 0.00 | 0.00 | 34 | 1019.6 |
| 20260906050023 | 69 | 174 | 2.0 | 3.0 | 0.00 | 0.00 | 0.00 | 34 | 1019.5 |
| 20260906045026 | 70 | 152 | 3.0 | 5.0 | 0.00 | 0.00 | 0.00 | 34 | 1019.0 |
| 20260906044208 | 71 | 114 | 4.0 | 5.0 | 0.00 | 0.00 | 0.00 | 33 | 1019.1 |
| 20260906043028 | 71 | 227 | 5.0 | 6.0 | 0.00 | 0.00 | 0.00 | 32 | 1019.1 |
| 20260906042029 | 72 | 204 | 6.0 | 8.0 | 0.00 | 0.00 | 0.00 | 31 | 1018.5 |
| 20260906041046 | 72 | 234 | 6.0 | 8.0 | 0.00 | 0.00 | 0.00 | 30 | 1018.3 |
| 20260906040022 | 72 | 217 | 6.0 | 9.0 | 0.00 | 0.00 | 0.00 | 30 | 1018.5 |
| 20260906035026 | 72 | 203 | 6.0 | 10.0 | 0.00 | 0.00 | 0.00 | 30 | 1017.9 |
| 20260906034026 | 72 | 216 | 6.0 | 10.0 | 0.00 | 0.00 | 0.00 | 30 | 1017.5 |
| 20260906033102 | 72 | 219 | 6.0 | 7.0 | 0.00 | 0.00 | 0.00 | 30 | 1017.5 |
| 20260906032053 | 73 | 193 | 6.0 | 8.0 | 0.00 | 0.00 | 0.00 | 30 | 1017.1 |
| 20260906031030 | 73 | 217 | 7.0 | 8.0 | 0.00 | 0.00 | 0.00 | 29 | 1017.0 |
| 20260906030033 | 73 | 211 | 6.0 | 12.0 | 0.00 | 0.00 | 0.00 | 29 | 1016.9 |
| 20260906025025 | 73 | 230 | 5.0 | 8.0 | 0.00 | 0.00 | 0.00 | 29 | 1016.9 |
| 20260906024028 | 74 | 189 | 5.0 | 6.0 | 0.00 | 0.00 | 0.00 | 29 | 1016.7 |
| 20260906023030 | 74 | 211 | 6.0 | 6.0 | 0.00 | 0.00 | 0.00 | 28 | 1016.7 |
| 20260906022046 | 74 | 254 | 6.0 | 9.0 | 0.00 | 0.00 | 0.00 | 28 | 1016.5 |
| 20260906021022 | 75 | 211 | 7.0 | 7.0 | 0.00 | 0.00 | 0.00 | 28 | 1016.9 |
| 20260906020049 | 75 | 208 | 8.0 | 14.0 | 0.00 | 0.00 | 0.00 | 27 | 1016.9 |
| 20260906015024 | 76 | 217 | 8.0 | 11.0 | 0.00 | 0.00 | 0.00 | 27 | 1016.9 |
| 20260906014026 | 76 | 193 | 7.0 | 12.0 | 0.00 | 0.00 | 0.00 | 27 | 1017.0 |
| 20260906012029 | 77 | 216 | 7.0 | 8.0 | 0.00 | 0.00 | 0.00 | 27 | 1017.6 |
| 20260906011045 | 77 | 203 | 7.0 | 12.0 | 0.00 | 0.00 | 0.00 | 27 | 1017.6 |
| 20260906005114 | 79 | 211 | 8.0 | 15.0 | 0.00 | 0.00 | 0.00 | 25 | 1018.6 |
| 20260906004050 | 79 | 197 | 8.0 | 11.0 | 0.00 | 0.00 | 0.00 | 24 | 1018.1 |
| 20260906003026 | 80 | 206 | 8.0 | 10.0 | 0.00 | 0.00 | 0.00 | 24 | 1018.4 |
| 20260906002028 | 80 | 203 | 7.0 | 10.0 | 0.00 | 0.00 | 0.00 | 25 | 1019.2 |
| 20260906001027 | 81 | 217 | 8.0 | 10.0 | 0.00 | 0.00 | 0.00 | 25 | 1019.3 |
| 20260906000028 | 82 | 197 | 8.0 | 14.0 | 0.00 | 0.00 | 0.00 | 24 | 1019.7 |
| 20260905235030 | 83 | 171 | 8.0 | 12.0 | 0.00 | 0.00 | 0.00 | 24 | 1019.7 |
| 20260905234023 | 84 | 205 | 7.0 | 10.0 | 0.00 | 0.00 | 0.00 | 23 | 1020.2 |
| 20260905233023 | 85 | 178 | 8.0 | 12.0 | 0.00 | 0.00 | 0.00 | 22 | 1020.3 |
| 20260905232025 | 86 | 176 | 6.0 | 13.0 | 0.00 | 0.00 | 0.00 | 22 | 1020.7 |
| 20260905231026 | 88 | 232 | 6.0 | 7.0 | 0.00 | 0.00 | 0.00 | 22 | 1021.0 |
| 20260905230244 | 88 | 234 | 8.0 | 13.0 | 0.00 | 0.00 | 0.00 | 21 | 1021.4 |